sensor_id;sensor_type;location;lat;lon;timestamp;temperature;humidity
18712;DHT22;9485;49.386;8.674;2024-03-02T00:02:54;12.70;80.10
18712;DHT22;9485;49.386;8.674;2024-03-02T00:08:22;12.60;80.00
18712;DHT22;9485;49.386;8.674;2024-03-02T00:13:47;12.50;79.70
18712;DHT22;9485;49.386;8.674;2024-03-02T00:19:09;12.40;79.80
18712;DHT22;9485;49.386;8.674;2024-03-02T00:24:33;12.20;79.70
18712;DHT22;9485;49.386;8.674;2024-03-02T00:29:54;12.10;79.60
18712;DHT22;9485;49.386;8.674;2024-03-02T00:35:16;12.00;79.90
18712;DHT22;9485;49.386;8.674;2024-03-02T00:40:38;11.90;80.00
18712;DHT22;9485;49.386;8.674;2024-03-02T00:45:59;11.80;79.80
18712;DHT22;9485;49.386;8.674;2024-03-02T00:51:19;11.70;79.80
18712;DHT22;9485;49.386;8.674;2024-03-02T00:56:42;11.50;79.80
18712;DHT22;9485;49.386;8.674;2024-03-02T01:02:03;11.40;79.50
18712;DHT22;9485;49.386;8.674;2024-03-02T01:07:24;11.20;79.60
18712;DHT22;9485;49.386;8.674;2024-03-02T01:12:46;11.10;79.90
18712;DHT22;9485;49.386;8.674;2024-03-02T01:18:07;11.00;80.00
18712;DHT22;9485;49.386;8.674;2024-03-02T01:23:28;10.90;80.10
18712;DHT22;9485;49.386;8.674;2024-03-02T01:28:50;10.80;80.30
18712;DHT22;9485;49.386;8.674;2024-03-02T01:34:10;10.80;80.20
18712;DHT22;9485;49.386;8.674;2024-03-02T01:39:31;10.70;80.30
18712;DHT22;9485;49.386;8.674;2024-03-02T01:44:53;10.60;80.40
18712;DHT22;9485;49.386;8.674;2024-03-02T01:50:14;10.50;80.40
18712;DHT22;9485;49.386;8.674;2024-03-02T01:55:35;10.50;80.50
18712;DHT22;9485;49.386;8.674;2024-03-02T02:00:57;10.40;80.40
18712;DHT22;9485;49.386;8.674;2024-03-02T02:06:18;10.30;80.40
18712;DHT22;9485;49.386;8.674;2024-03-02T02:11:39;10.20;80.50
18712;DHT22;9485;49.386;8.674;2024-03-02T02:17:01;10.20;80.70
18712;DHT22;9485;49.386;8.674;2024-03-02T02:22:22;10.10;80.70
18712;DHT22;9485;49.386;8.674;2024-03-02T02:27:43;10.10;80.90
18712;DHT22;9485;49.386;8.674;2024-03-02T02:33:04;10.00;80.90
18712;DHT22;9485;49.386;8.674;2024-03-02T02:38:26;10.00;80.80
18712;DHT22;9485;49.386;8.674;2024-03-02T02:43:47;9.90;80.70
18712;DHT22;9485;49.386;8.674;2024-03-02T02:49:08;9.80;80.80
18712;DHT22;9485;49.386;8.674;2024-03-02T02:54:30;9.70;80.80
18712;DHT22;9485;49.386;8.674;2024-03-02T02:59:51;9.70;81.00
18712;DHT22;9485;49.386;8.674;2024-03-02T03:05:13;9.60;81.10
18712;DHT22;9485;49.386;8.674;2024-03-02T03:10:36;9.60;81.20
18712;DHT22;9485;49.386;8.674;2024-03-02T03:15:56;9.60;81.30
18712;DHT22;9485;49.386;8.674;2024-03-02T03:21:17;9.50;81.30
18712;DHT22;9485;49.386;8.674;2024-03-02T03:26:39;9.50;81.00
18712;DHT22;9485;49.386;8.674;2024-03-02T03:31:59;9.40;81.00
18712;DHT22;9485;49.386;8.674;2024-03-02T03:37:20;9.30;81.10
18712;DHT22;9485;49.386;8.674;2024-03-02T03:42:41;9.30;81.30
18712;DHT22;9485;49.386;8.674;2024-03-02T03:48:02;9.30;81.50
18712;DHT22;9485;49.386;8.674;2024-03-02T03:53:22;9.20;81.60
18712;DHT22;9485;49.386;8.674;2024-03-02T03:58:44;9.20;81.60
18712;DHT22;9485;49.386;8.674;2024-03-02T04:04:06;9.20;81.60
18712;DHT22;9485;49.386;8.674;2024-03-02T04:09:27;9.10;81.80
18712;DHT22;9485;49.386;8.674;2024-03-02T04:14:49;9.10;81.90
18712;DHT22;9485;49.386;8.674;2024-03-02T04:20:10;9.10;82.30
18712;DHT22;9485;49.386;8.674;2024-03-02T04:25:32;9.20;82.70
18712;DHT22;9485;49.386;8.674;2024-03-02T04:30:54;9.20;83.00
18712;DHT22;9485;49.386;8.674;2024-03-02T04:36:14;9.30;83.50
18712;DHT22;9485;49.386;8.674;2024-03-02T04:41:35;9.40;83.90
18712;DHT22;9485;49.386;8.674;2024-03-02T04:46:57;9.50;84.20
18712;DHT22;9485;49.386;8.674;2024-03-02T04:52:17;9.70;84.30
18712;DHT22;9485;49.386;8.674;2024-03-02T04:57:38;9.80;84.50
18712;DHT22;9485;49.386;8.674;2024-03-02T05:03:01;9.90;84.10
18712;DHT22;9485;49.386;8.674;2024-03-02T05:08:21;9.90;83.70
18712;DHT22;9485;49.386;8.674;2024-03-02T05:13:42;10.00;84.40
18712;DHT22;9485;49.386;8.674;2024-03-02T05:19:04;10.00;83.50
18712;DHT22;9485;49.386;8.674;2024-03-02T05:24:25;9.90;83.30
18712;DHT22;9485;49.386;8.674;2024-03-02T05:29:47;9.90;82.90
18712;DHT22;9485;49.386;8.674;2024-03-02T05:35:09;9.80;82.50
18712;DHT22;9485;49.386;8.674;2024-03-02T05:40:31;9.70;82.40
18712;DHT22;9485;49.386;8.674;2024-03-02T05:45:52;9.60;82.30
18712;DHT22;9485;49.386;8.674;2024-03-02T05:51:14;9.50;82.30
18712;DHT22;9485;49.386;8.674;2024-03-02T05:56:35;9.40;82.20
18712;DHT22;9485;49.386;8.674;2024-03-02T06:01:56;9.40;82.30
18712;DHT22;9485;49.386;8.674;2024-03-02T06:07:18;9.30;82.30
18712;DHT22;9485;49.386;8.674;2024-03-02T06:12:38;9.20;82.30
18712;DHT22;9485;49.386;8.674;2024-03-02T06:17:59;9.20;82.50
18712;DHT22;9485;49.386;8.674;2024-03-02T06:23:21;9.10;82.40
18712;DHT22;9485;49.386;8.674;2024-03-02T06:28:41;9.10;82.50
18712;DHT22;9485;49.386;8.674;2024-03-02T06:34:03;9.00;82.70
18712;DHT22;9485;49.386;8.674;2024-03-02T06:39:25;9.00;83.10
18712;DHT22;9485;49.386;8.674;2024-03-02T06:44:46;9.00;83.40
18712;DHT22;9485;49.386;8.674;2024-03-02T06:50:07;9.00;83.50
18712;DHT22;9485;49.386;8.674;2024-03-02T06:55:29;9.00;83.50
18712;DHT22;9485;49.386;8.674;2024-03-02T07:00:50;9.10;83.40
18712;DHT22;9485;49.386;8.674;2024-03-02T07:06:12;9.10;83.70
18712;DHT22;9485;49.386;8.674;2024-03-02T07:11:33;9.10;83.90
18712;DHT22;9485;49.386;8.674;2024-03-02T07:16:54;9.10;84.20
18712;DHT22;9485;49.386;8.674;2024-03-02T07:22:15;9.20;84.40
18712;DHT22;9485;49.386;8.674;2024-03-02T07:27:37;9.30;84.50
18712;DHT22;9485;49.386;8.674;2024-03-02T07:32:58;9.40;84.50
18712;DHT22;9485;49.386;8.674;2024-03-02T07:38:18;9.40;84.60
18712;DHT22;9485;49.386;8.674;2024-03-02T07:43:40;9.50;84.80
18712;DHT22;9485;49.386;8.674;2024-03-02T07:49:01;9.60;85.20
18712;DHT22;9485;49.386;8.674;2024-03-02T07:54:21;9.70;85.60
18712;DHT22;9485;49.386;8.674;2024-03-02T07:59:43;9.90;86.20
18712;DHT22;9485;49.386;8.674;2024-03-02T08:05:04;10.10;87.00
18712;DHT22;9485;49.386;8.674;2024-03-02T08:10:25;10.30;88.00
18712;DHT22;9485;49.386;8.674;2024-03-02T08:15:47;10.70;89.80
18712;DHT22;9485;49.386;8.674;2024-03-02T08:21:08;11.30;90.50
18712;DHT22;9485;49.386;8.674;2024-03-02T08:26:28;12.00;91.20
18712;DHT22;9485;49.386;8.674;2024-03-02T08:31:52;12.70;91.40
18712;DHT22;9485;49.386;8.674;2024-03-02T08:37:12;13.50;91.10
18712;DHT22;9485;49.386;8.674;2024-03-02T08:42:33;14.30;91.30
18712;DHT22;9485;49.386;8.674;2024-03-02T08:47:55;15.00;90.90
18712;DHT22;9485;49.386;8.674;2024-03-02T08:53:16;15.60;90.00
18712;DHT22;9485;49.386;8.674;2024-03-02T08:58:37;16.20;89.60
18712;DHT22;9485;49.386;8.674;2024-03-02T09:03:59;16.70;90.40
18712;DHT22;9485;49.386;8.674;2024-03-02T09:09:19;17.50;91.80
18712;DHT22;9485;49.386;8.674;2024-03-02T09:14:40;18.60;92.80
18712;DHT22;9485;49.386;8.674;2024-03-02T09:20:03;19.70;92.60
18712;DHT22;9485;49.386;8.674;2024-03-02T09:25:24;20.90;91.70
18712;DHT22;9485;49.386;8.674;2024-03-02T09:30:45;22.10;91.80
18712;DHT22;9485;49.386;8.674;2024-03-02T09:36:16;23.30;91.00
18712;DHT22;9485;49.386;8.674;2024-03-02T09:41:38;24.40;85.10
18712;DHT22;9485;49.386;8.674;2024-03-02T09:46:59;25.30;86.60
18712;DHT22;9485;49.386;8.674;2024-03-02T09:52:21;26.10;84.30
18712;DHT22;9485;49.386;8.674;2024-03-02T09:57:42;26.70;79.70
18712;DHT22;9485;49.386;8.674;2024-03-02T10:03:03;27.30;79.20
18712;DHT22;9485;49.386;8.674;2024-03-02T10:08:26;28.00;77.50
18712;DHT22;9485;49.386;8.674;2024-03-02T10:14:07;28.50;74.30
18712;DHT22;9485;49.386;8.674;2024-03-02T10:19:31;30.20;70.10
18712;DHT22;9485;49.386;8.674;2024-03-02T10:25:02;29.30;69.10
18712;DHT22;9485;49.386;8.674;2024-03-02T10:30:26;29.70;66.50
18712;DHT22;9485;49.386;8.674;2024-03-02T10:35:49;29.80;65.60
18712;DHT22;9485;49.386;8.674;2024-03-02T10:41:11;29.70;63.70
18712;DHT22;9485;49.386;8.674;2024-03-02T10:46:35;29.60;62.30
18712;DHT22;9485;49.386;8.674;2024-03-02T10:51:57;29.70;61.00
18712;DHT22;9485;49.386;8.674;2024-03-02T10:57:21;29.90;59.80
18712;DHT22;9485;49.386;8.674;2024-03-02T11:02:50;30.00;58.00
18712;DHT22;9485;49.386;8.674;2024-03-02T11:08:13;30.30;56.40
18712;DHT22;9485;49.386;8.674;2024-03-02T11:13:38;30.10;55.90
18712;DHT22;9485;49.386;8.674;2024-03-02T11:19:10;29.40;53.60
18712;DHT22;9485;49.386;8.674;2024-03-02T11:24:32;28.40;53.00
18712;DHT22;9485;49.386;8.674;2024-03-02T11:29:55;27.40;53.30
18712;DHT22;9485;49.386;8.674;2024-03-02T11:35:16;26.70;53.50
18712;DHT22;9485;49.386;8.674;2024-03-02T11:40:39;26.10;54.50
18712;DHT22;9485;49.386;8.674;2024-03-02T11:46:03;25.80;54.10
18712;DHT22;9485;49.386;8.674;2024-03-02T11:51:27;25.70;54.10
18712;DHT22;9485;49.386;8.674;2024-03-02T11:56:48;25.60;54.90
18712;DHT22;9485;49.386;8.674;2024-03-02T12:02:14;25.40;55.40
18712;DHT22;9485;49.386;8.674;2024-03-02T12:07:38;25.30;54.70
18712;DHT22;9485;49.386;8.674;2024-03-02T12:13:00;25.70;55.90
18712;DHT22;9485;49.386;8.674;2024-03-02T12:18:23;26.30;55.70
18712;DHT22;9485;49.386;8.674;2024-03-02T12:23:44;27.10;54.20
18712;DHT22;9485;49.386;8.674;2024-03-02T12:29:05;27.40;53.20
18712;DHT22;9485;49.386;8.674;2024-03-02T12:34:27;27.50;52.70
18712;DHT22;9485;49.386;8.674;2024-03-02T12:39:48;27.60;52.00
18712;DHT22;9485;49.386;8.674;2024-03-02T12:45:09;27.40;52.50
18712;DHT22;9485;49.386;8.674;2024-03-02T12:50:31;27.40;52.80
18712;DHT22;9485;49.386;8.674;2024-03-02T12:55:52;27.30;52.60
18712;DHT22;9485;49.386;8.674;2024-03-02T13:01:15;27.30;53.20
18712;DHT22;9485;49.386;8.674;2024-03-02T13:06:39;27.10;53.90
18712;DHT22;9485;49.386;8.674;2024-03-02T13:12:00;27.00;54.10
18712;DHT22;9485;49.386;8.674;2024-03-02T13:17:23;27.00;54.80
18712;DHT22;9485;49.386;8.674;2024-03-02T13:22:45;26.80;54.70
18712;DHT22;9485;49.386;8.674;2024-03-02T13:28:06;26.70;54.90
18712;DHT22;9485;49.386;8.674;2024-03-02T13:33:27;26.60;54.40
18712;DHT22;9485;49.386;8.674;2024-03-02T13:38:50;26.30;54.70
18712;DHT22;9485;49.386;8.674;2024-03-02T13:44:11;26.00;55.40
18712;DHT22;9485;49.386;8.674;2024-03-02T13:49:32;25.70;55.00
18712;DHT22;9485;49.386;8.674;2024-03-02T13:54:57;25.40;55.10
18712;DHT22;9485;49.386;8.674;2024-03-02T14:00:18;25.10;54.50
18712;DHT22;9485;49.386;8.674;2024-03-02T14:05:39;24.70;54.60
18712;DHT22;9485;49.386;8.674;2024-03-02T14:11:01;24.40;55.10
18712;DHT22;9485;49.386;8.674;2024-03-02T14:16:22;24.10;54.80
18712;DHT22;9485;49.386;8.674;2024-03-02T14:21:43;23.70;55.30
18712;DHT22;9485;49.386;8.674;2024-03-02T14:27:05;23.30;55.70
18712;DHT22;9485;49.386;8.674;2024-03-02T14:32:25;23.00;55.40
18712;DHT22;9485;49.386;8.674;2024-03-02T14:37:46;22.70;55.60
18712;DHT22;9485;49.386;8.674;2024-03-02T14:43:07;22.40;55.90
18712;DHT22;9485;49.386;8.674;2024-03-02T14:48:28;22.10;56.00
18712;DHT22;9485;49.386;8.674;2024-03-02T14:53:49;22.00;56.90
18712;DHT22;9485;49.386;8.674;2024-03-02T14:59:12;22.00;57.10
18712;DHT22;9485;49.386;8.674;2024-03-02T15:04:32;22.00;57.50
18712;DHT22;9485;49.386;8.674;2024-03-02T15:09:53;22.00;57.10
18712;DHT22;9485;49.386;8.674;2024-03-02T15:15:16;21.90;57.00
18712;DHT22;9485;49.386;8.674;2024-03-02T15:20:37;21.80;56.80
18712;DHT22;9485;49.386;8.674;2024-03-02T15:25:58;21.60;56.80
18712;DHT22;9485;49.386;8.674;2024-03-02T15:31:20;21.40;56.60
18712;DHT22;9485;49.386;8.674;2024-03-02T15:36:41;21.10;56.30
18712;DHT22;9485;49.386;8.674;2024-03-02T15:42:03;20.80;56.50
18712;DHT22;9485;49.386;8.674;2024-03-02T15:47:25;20.50;56.70
18712;DHT22;9485;49.386;8.674;2024-03-02T15:52:46;20.20;56.80
18712;DHT22;9485;49.386;8.674;2024-03-02T15:58:07;20.00;57.20
18712;DHT22;9485;49.386;8.674;2024-03-02T16:03:29;19.80;57.40
18712;DHT22;9485;49.386;8.674;2024-03-02T16:08:51;19.60;57.40
18712;DHT22;9485;49.386;8.674;2024-03-02T16:14:14;19.40;57.70
18712;DHT22;9485;49.386;8.674;2024-03-02T16:19:37;19.30;57.80
18712;DHT22;9485;49.386;8.674;2024-03-02T16:24:59;19.20;57.80
18712;DHT22;9485;49.386;8.674;2024-03-02T16:30:20;19.00;58.10
18712;DHT22;9485;49.386;8.674;2024-03-02T16:35:44;18.90;58.30
18712;DHT22;9485;49.386;8.674;2024-03-02T16:41:07;18.90;58.30
18712;DHT22;9485;49.386;8.674;2024-03-02T16:46:28;18.70;58.50
18712;DHT22;9485;49.386;8.674;2024-03-02T16:51:50;18.70;58.60
18712;DHT22;9485;49.386;8.674;2024-03-02T16:57:11;18.60;58.50
18712;DHT22;9485;49.386;8.674;2024-03-02T17:02:32;18.60;58.80
18712;DHT22;9485;49.386;8.674;2024-03-02T17:07:54;18.50;58.70
18712;DHT22;9485;49.386;8.674;2024-03-02T17:13:17;18.50;58.80
18712;DHT22;9485;49.386;8.674;2024-03-02T17:18:37;18.40;58.90
18712;DHT22;9485;49.386;8.674;2024-03-02T17:23:59;18.40;58.90
18712;DHT22;9485;49.386;8.674;2024-03-02T17:29:21;18.30;58.90
18712;DHT22;9485;49.386;8.674;2024-03-02T17:34:43;18.20;59.10
18712;DHT22;9485;49.386;8.674;2024-03-02T17:40:07;18.10;59.10
18712;DHT22;9485;49.386;8.674;2024-03-02T17:45:29;18.10;58.90
18712;DHT22;9485;49.386;8.674;2024-03-02T17:50:50;18.00;59.20
18712;DHT22;9485;49.386;8.674;2024-03-02T17:56:12;18.00;59.20
18712;DHT22;9485;49.386;8.674;2024-03-02T18:01:33;18.00;59.40
18712;DHT22;9485;49.386;8.674;2024-03-02T18:06:54;18.00;59.70
18712;DHT22;9485;49.386;8.674;2024-03-02T18:12:18;18.00;59.80
18712;DHT22;9485;49.386;8.674;2024-03-02T18:17:39;18.00;59.70
18712;DHT22;9485;49.386;8.674;2024-03-02T18:23:00;18.10;59.90
18712;DHT22;9485;49.386;8.674;2024-03-02T18:28:22;18.00;59.70
18712;DHT22;9485;49.386;8.674;2024-03-02T18:33:43;18.00;59.60
18712;DHT22;9485;49.386;8.674;2024-03-02T18:39:03;18.00;60.00
18712;DHT22;9485;49.386;8.674;2024-03-02T18:44:26;18.00;60.00
18712;DHT22;9485;49.386;8.674;2024-03-02T18:49:46;17.90;59.90
18712;DHT22;9485;49.386;8.674;2024-03-02T18:55:08;17.90;60.10
18712;DHT22;9485;49.386;8.674;2024-03-02T19:00:32;17.80;60.00
18712;DHT22;9485;49.386;8.674;2024-03-02T19:05:53;17.70;59.90
18712;DHT22;9485;49.386;8.674;2024-03-02T19:11:13;17.60;60.20
18712;DHT22;9485;49.386;8.674;2024-03-02T19:16:36;17.60;60.30
18712;DHT22;9485;49.386;8.674;2024-03-02T19:21:57;17.60;60.20
18712;DHT22;9485;49.386;8.674;2024-03-02T19:27:17;17.50;60.40
18712;DHT22;9485;49.386;8.674;2024-03-02T19:32:39;17.50;60.60
18712;DHT22;9485;49.386;8.674;2024-03-02T19:38:00;17.40;60.60
18712;DHT22;9485;49.386;8.674;2024-03-02T19:43:21;17.40;61.00
18712;DHT22;9485;49.386;8.674;2024-03-02T19:48:43;17.20;60.90
18712;DHT22;9485;49.386;8.674;2024-03-02T19:54:04;17.20;61.00
18712;DHT22;9485;49.386;8.674;2024-03-02T19:59:24;17.10;61.20
18712;DHT22;9485;49.386;8.674;2024-03-02T20:04:46;17.00;61.30
18712;DHT22;9485;49.386;8.674;2024-03-02T20:10:08;16.90;61.40
18712;DHT22;9485;49.386;8.674;2024-03-02T20:15:29;16.80;61.60
18712;DHT22;9485;49.386;8.674;2024-03-02T20:20:52;16.80;61.80
18712;DHT22;9485;49.386;8.674;2024-03-02T20:26:12;16.80;61.80
18712;DHT22;9485;49.386;8.674;2024-03-02T20:31:33;16.70;61.90
18712;DHT22;9485;49.386;8.674;2024-03-02T20:36:56;16.70;62.00
18712;DHT22;9485;49.386;8.674;2024-03-02T20:42:19;16.70;62.00
18712;DHT22;9485;49.386;8.674;2024-03-02T20:47:40;16.70;62.30
18712;DHT22;9485;49.386;8.674;2024-03-02T20:53:03;16.70;62.30
18712;DHT22;9485;49.386;8.674;2024-03-02T20:58:26;16.60;62.20
18712;DHT22;9485;49.386;8.674;2024-03-02T21:03:46;16.60;62.30
18712;DHT22;9485;49.386;8.674;2024-03-02T21:09:08;16.60;62.50
18712;DHT22;9485;49.386;8.674;2024-03-02T21:14:29;16.60;62.40
18712;DHT22;9485;49.386;8.674;2024-03-02T21:19:49;16.50;62.40
18712;DHT22;9485;49.386;8.674;2024-03-02T21:25:11;16.50;62.50
18712;DHT22;9485;49.386;8.674;2024-03-02T21:30:34;16.40;62.30
18712;DHT22;9485;49.386;8.674;2024-03-02T21:35:55;16.40;62.60
18712;DHT22;9485;49.386;8.674;2024-03-02T21:41:17;16.30;62.70
18712;DHT22;9485;49.386;8.674;2024-03-02T21:46:39;16.30;62.60
18712;DHT22;9485;49.386;8.674;2024-03-02T21:52:00;16.30;62.80
18712;DHT22;9485;49.386;8.674;2024-03-02T21:57:22;16.20;63.00
18712;DHT22;9485;49.386;8.674;2024-03-02T22:02:44;16.20;62.90
18712;DHT22;9485;49.386;8.674;2024-03-02T22:08:06;16.20;63.70
18712;DHT22;9485;49.386;8.674;2024-03-02T22:13:28;16.10;63.00
18712;DHT22;9485;49.386;8.674;2024-03-02T22:18:48;16.10;63.10
18712;DHT22;9485;49.386;8.674;2024-03-02T22:24:12;16.10;63.10
18712;DHT22;9485;49.386;8.674;2024-03-02T22:29:34;16.00;63.00
18712;DHT22;9485;49.386;8.674;2024-03-02T22:34:55;16.00;63.10
18712;DHT22;9485;49.386;8.674;2024-03-02T22:40:16;16.00;63.30
18712;DHT22;9485;49.386;8.674;2024-03-02T22:45:38;15.90;63.40
18712;DHT22;9485;49.386;8.674;2024-03-02T22:50:58;15.80;63.50
18712;DHT22;9485;49.386;8.674;2024-03-02T22:56:19;15.80;63.70
18712;DHT22;9485;49.386;8.674;2024-03-02T23:01:41;15.80;63.70
18712;DHT22;9485;49.386;8.674;2024-03-02T23:07:03;15.80;63.80
18712;DHT22;9485;49.386;8.674;2024-03-02T23:12:24;15.70;63.90
18712;DHT22;9485;49.386;8.674;2024-03-02T23:17:46;15.70;64.20
18712;DHT22;9485;49.386;8.674;2024-03-02T23:23:07;15.70;64.00
18712;DHT22;9485;49.386;8.674;2024-03-02T23:28:28;15.60;64.10
18712;DHT22;9485;49.386;8.674;2024-03-02T23:33:50;15.70;64.40
18712;DHT22;9485;49.386;8.674;2024-03-02T23:39:11;15.60;64.40
18712;DHT22;9485;49.386;8.674;2024-03-02T23:44:51;15.60;64.70
18712;DHT22;9485;49.386;8.674;2024-03-02T23:50:13;15.60;64.70
18712;DHT22;9485;49.386;8.674;2024-03-02T23:55:34;15.60;64.70
